sensor_id;sensor_type;location;lat;lon;timestamp;temperature;humidity
16066;DHT22;8137;48.952;8.970;2022-12-07T00:01:13;3.60;99.90
16066;DHT22;8137;48.952;8.970;2022-12-07T00:03:40;3.60;99.90
16066;DHT22;8137;48.952;8.970;2022-12-07T00:06:07;3.60;99.90
16066;DHT22;8137;48.952;8.970;2022-12-07T00:08:33;3.60;99.90
16066;DHT22;8137;48.952;8.970;2022-12-07T00:11:07;3.50;99.90
16066;DHT22;8137;48.952;8.970;2022-12-07T00:13:33;3.50;99.90
16066;DHT22;8137;48.952;8.970;2022-12-07T00:16:10;3.60;99.90
16066;DHT22;8137;48.952;8.970;2022-12-07T00:18:37;3.50;99.90
16066;DHT22;8137;48.952;8.970;2022-12-07T00:21:08;3.60;99.90
16066;DHT22;8137;48.952;8.970;2022-12-07T00:23:34;3.50;99.90
16066;DHT22;8137;48.952;8.970;2022-12-07T00:26:31;3.50;99.90
16066;DHT22;8137;48.952;8.970;2022-12-07T00:29:03;3.60;99.90
16066;DHT22;8137;48.952;8.970;2022-12-07T00:31:32;3.50;99.90
16066;DHT22;8137;48.952;8.970;2022-12-07T00:33:59;3.50;99.90
16066;DHT22;8137;48.952;8.970;2022-12-07T00:36:25;3.50;99.90
16066;DHT22;8137;48.952;8.970;2022-12-07T00:38:50;3.50;99.90
16066;DHT22;8137;48.952;8.970;2022-12-07T00:41:19;3.50;99.90
16066;DHT22;8137;48.952;8.970;2022-12-07T00:43:46;3.40;99.90
16066;DHT22;8137;48.952;8.970;2022-12-07T00:46:13;3.40;99.90
16066;DHT22;8137;48.952;8.970;2022-12-07T00:48:39;3.40;99.90
16066;DHT22;8137;48.952;8.970;2022-12-07T00:51:05;3.40;99.90
16066;DHT22;8137;48.952;8.970;2022-12-07T00:53:33;3.40;99.90
16066;DHT22;8137;48.952;8.970;2022-12-07T00:58:39;3.30;99.90
16066;DHT22;8137;48.952;8.970;2022-12-07T01:01:06;3.30;99.90
16066;DHT22;8137;48.952;8.970;2022-12-07T01:03:32;3.30;99.90
16066;DHT22;8137;48.952;8.970;2022-12-07T01:05:58;3.30;99.90
16066;DHT22;8137;48.952;8.970;2022-12-07T01:08:24;3.30;99.90
16066;DHT22;8137;48.952;8.970;2022-12-07T01:11:00;3.30;99.90
16066;DHT22;8137;48.952;8.970;2022-12-07T01:13:26;3.30;99.90
16066;DHT22;8137;48.952;8.970;2022-12-07T01:15:57;3.30;99.90
16066;DHT22;8137;48.952;8.970;2022-12-07T01:18:23;3.30;99.90
16066;DHT22;8137;48.952;8.970;2022-12-07T01:21:03;3.30;99.90
16066;DHT22;8137;48.952;8.970;2022-12-07T01:23:30;3.30;99.90
16066;DHT22;8137;48.952;8.970;2022-12-07T01:26:01;3.20;99.90
16066;DHT22;8137;48.952;8.970;2022-12-07T01:28:27;3.30;99.90
16066;DHT22;8137;48.952;8.970;2022-12-07T01:31:07;3.20;99.90
16066;DHT22;8137;48.952;8.970;2022-12-07T01:33:36;3.20;99.90
16066;DHT22;8137;48.952;8.970;2022-12-07T01:36:19;3.20;99.90
16066;DHT22;8137;48.952;8.970;2022-12-07T01:38:47;3.20;99.90
16066;DHT22;8137;48.952;8.970;2022-12-07T01:41:14;3.20;99.90
16066;DHT22;8137;48.952;8.970;2022-12-07T01:47:00;3.20;99.90
16066;DHT22;8137;48.952;8.970;2022-12-07T01:52:28;3.20;99.90
16066;DHT22;8137;48.952;8.970;2022-12-07T01:55:03;3.20;99.90
16066;DHT22;8137;48.952;8.970;2022-12-07T01:57:30;3.20;99.90
16066;DHT22;8137;48.952;8.970;2022-12-07T01:59:58;3.20;99.90
16066;DHT22;8137;48.952;8.970;2022-12-07T02:02:30;3.20;99.90
16066;DHT22;8137;48.952;8.970;2022-12-07T02:05:01;3.20;99.90
16066;DHT22;8137;48.952;8.970;2022-12-07T02:07:27;3.20;99.90
16066;DHT22;8137;48.952;8.970;2022-12-07T02:09:54;3.20;99.90
16066;DHT22;8137;48.952;8.970;2022-12-07T02:12:23;3.20;99.90
16066;DHT22;8137;48.952;8.970;2022-12-07T02:14:50;3.20;99.90
16066;DHT22;8137;48.952;8.970;2022-12-07T02:17:34;3.10;99.90
16066;DHT22;8137;48.952;8.970;2022-12-07T02:20:13;3.10;99.90
16066;DHT22;8137;48.952;8.970;2022-12-07T02:28:31;3.00;99.90
16066;DHT22;8137;48.952;8.970;2022-12-07T02:31:05;3.00;99.90
16066;DHT22;8137;48.952;8.970;2022-12-07T02:33:44;2.90;99.90
16066;DHT22;8137;48.952;8.970;2022-12-07T02:36:16;2.90;99.90
16066;DHT22;8137;48.952;8.970;2022-12-07T02:39:15;2.80;99.90
16066;DHT22;8137;48.952;8.970;2022-12-07T02:41:52;2.80;99.90
16066;DHT22;8137;48.952;8.970;2022-12-07T02:44:23;2.80;99.90
16066;DHT22;8137;48.952;8.970;2022-12-07T02:47:04;2.80;99.90
16066;DHT22;8137;48.952;8.970;2022-12-07T02:49:31;2.80;99.90
16066;DHT22;8137;48.952;8.970;2022-12-07T02:51:57;2.90;99.90
16066;DHT22;8137;48.952;8.970;2022-12-07T02:54:23;2.80;99.90
16066;DHT22;8137;48.952;8.970;2022-12-07T02:56:57;2.80;99.90
16066;DHT22;8137;48.952;8.970;2022-12-07T03:02:26;2.90;99.90
16066;DHT22;8137;48.952;8.970;2022-12-07T03:08:02;2.80;99.90
16066;DHT22;8137;48.952;8.970;2022-12-07T03:16:11;2.90;99.90
16066;DHT22;8137;48.952;8.970;2022-12-07T03:18:47;2.90;99.90
16066;DHT22;8137;48.952;8.970;2022-12-07T03:21:16;2.90;99.90
16066;DHT22;8137;48.952;8.970;2022-12-07T03:23:46;3.00;99.90
16066;DHT22;8137;48.952;8.970;2022-12-07T03:26:15;3.00;99.90
16066;DHT22;8137;48.952;8.970;2022-12-07T03:28:50;3.00;99.90
16066;DHT22;8137;48.952;8.970;2022-12-07T03:31:20;3.00;99.90
16066;DHT22;8137;48.952;8.970;2022-12-07T03:34:07;3.00;99.90
16066;DHT22;8137;48.952;8.970;2022-12-07T03:36:42;3.00;99.90
16066;DHT22;8137;48.952;8.970;2022-12-07T03:41:38;2.90;99.90
16066;DHT22;8137;48.952;8.970;2022-12-07T03:44:08;2.90;99.90
16066;DHT22;8137;48.952;8.970;2022-12-07T03:47:27;2.90;99.90
16066;DHT22;8137;48.952;8.970;2022-12-07T03:49:59;2.90;99.90
16066;DHT22;8137;48.952;8.970;2022-12-07T03:52:32;2.90;99.90
16066;DHT22;8137;48.952;8.970;2022-12-07T03:57:50;2.90;99.90
16066;DHT22;8137;48.952;8.970;2022-12-07T04:00:18;2.90;99.90
16066;DHT22;8137;48.952;8.970;2022-12-07T04:02:44;2.90;99.90
16066;DHT22;8137;48.952;8.970;2022-12-07T04:05:10;2.80;99.90
16066;DHT22;8137;48.952;8.970;2022-12-07T04:07:36;2.80;99.90
16066;DHT22;8137;48.952;8.970;2022-12-07T04:10:02;2.80;99.90
16066;DHT22;8137;48.952;8.970;2022-12-07T04:12:28;2.70;99.90
16066;DHT22;8137;48.952;8.970;2022-12-07T04:14:54;2.70;99.90
16066;DHT22;8137;48.952;8.970;2022-12-07T04:17:19;2.60;99.90
16066;DHT22;8137;48.952;8.970;2022-12-07T04:19:45;2.60;99.90
16066;DHT22;8137;48.952;8.970;2022-12-07T04:22:10;2.60;99.90
16066;DHT22;8137;48.952;8.970;2022-12-07T04:24:36;2.60;99.90
16066;DHT22;8137;48.952;8.970;2022-12-07T04:27:02;2.60;99.90
16066;DHT22;8137;48.952;8.970;2022-12-07T04:29:28;2.60;99.90
16066;DHT22;8137;48.952;8.970;2022-12-07T04:31:54;2.60;99.90
16066;DHT22;8137;48.952;8.970;2022-12-07T04:34:19;2.60;99.90
16066;DHT22;8137;48.952;8.970;2022-12-07T04:36:45;2.60;99.90
16066;DHT22;8137;48.952;8.970;2022-12-07T04:39:25;2.50;99.90
16066;DHT22;8137;48.952;8.970;2022-12-07T04:41:51;2.40;99.90
16066;DHT22;8137;48.952;8.970;2022-12-07T04:44:18;2.40;99.90
16066;DHT22;8137;48.952;8.970;2022-12-07T04:46:44;2.40;99.90
16066;DHT22;8137;48.952;8.970;2022-12-07T04:49:10;2.40;99.90
16066;DHT22;8137;48.952;8.970;2022-12-07T04:51:36;2.50;99.90
16066;DHT22;8137;48.952;8.970;2022-12-07T04:54:02;2.40;99.90
16066;DHT22;8137;48.952;8.970;2022-12-07T04:56:28;2.50;99.90
16066;DHT22;8137;48.952;8.970;2022-12-07T04:58:54;2.50;99.90
16066;DHT22;8137;48.952;8.970;2022-12-07T05:01:21;2.40;99.90
16066;DHT22;8137;48.952;8.970;2022-12-07T05:03:47;2.40;99.90
16066;DHT22;8137;48.952;8.970;2022-12-07T05:06:13;2.40;99.90
16066;DHT22;8137;48.952;8.970;2022-12-07T05:08:40;2.40;99.90
16066;DHT22;8137;48.952;8.970;2022-12-07T05:11:06;2.40;99.90
16066;DHT22;8137;48.952;8.970;2022-12-07T05:13:32;2.40;99.90
16066;DHT22;8137;48.952;8.970;2022-12-07T05:15:58;2.40;99.90
16066;DHT22;8137;48.952;8.970;2022-12-07T05:18:24;2.40;99.90
16066;DHT22;8137;48.952;8.970;2022-12-07T05:20:50;2.40;99.90
16066;DHT22;8137;48.952;8.970;2022-12-07T05:23:16;2.40;99.90
16066;DHT22;8137;48.952;8.970;2022-12-07T05:25:42;2.30;99.90
16066;DHT22;8137;48.952;8.970;2022-12-07T05:28:10;2.40;99.90
16066;DHT22;8137;48.952;8.970;2022-12-07T05:30:36;2.40;99.90
16066;DHT22;8137;48.952;8.970;2022-12-07T05:33:01;2.40;99.90
16066;DHT22;8137;48.952;8.970;2022-12-07T05:35:28;2.40;99.90
16066;DHT22;8137;48.952;8.970;2022-12-07T05:37:54;2.40;99.90
16066;DHT22;8137;48.952;8.970;2022-12-07T05:40:20;2.40;99.90
16066;DHT22;8137;48.952;8.970;2022-12-07T05:42:45;2.40;99.90
16066;DHT22;8137;48.952;8.970;2022-12-07T05:45:11;2.40;99.90
16066;DHT22;8137;48.952;8.970;2022-12-07T05:47:36;2.40;99.90
16066;DHT22;8137;48.952;8.970;2022-12-07T05:50:03;2.40;99.90
16066;DHT22;8137;48.952;8.970;2022-12-07T05:52:29;2.50;99.90
16066;DHT22;8137;48.952;8.970;2022-12-07T05:54:54;2.60;99.90
16066;DHT22;8137;48.952;8.970;2022-12-07T05:57:20;2.60;99.90
16066;DHT22;8137;48.952;8.970;2022-12-07T05:59:45;2.60;99.90
16066;DHT22;8137;48.952;8.970;2022-12-07T06:02:13;2.60;99.90
16066;DHT22;8137;48.952;8.970;2022-12-07T06:04:41;2.60;99.90
16066;DHT22;8137;48.952;8.970;2022-12-07T06:07:08;2.50;99.90
16066;DHT22;8137;48.952;8.970;2022-12-07T06:09:35;2.50;99.90
16066;DHT22;8137;48.952;8.970;2022-12-07T06:12:00;2.50;99.90
16066;DHT22;8137;48.952;8.970;2022-12-07T06:14:45;2.60;99.90
16066;DHT22;8137;48.952;8.970;2022-12-07T06:17:11;2.60;99.90
16066;DHT22;8137;48.952;8.970;2022-12-07T06:19:38;2.60;99.90
16066;DHT22;8137;48.952;8.970;2022-12-07T06:22:04;2.60;99.90
16066;DHT22;8137;48.952;8.970;2022-12-07T06:24:30;2.60;99.90
16066;DHT22;8137;48.952;8.970;2022-12-07T06:26:56;2.60;99.90
16066;DHT22;8137;48.952;8.970;2022-12-07T06:29:22;2.60;99.90
16066;DHT22;8137;48.952;8.970;2022-12-07T06:31:47;2.60;99.90
16066;DHT22;8137;48.952;8.970;2022-12-07T06:34:16;2.60;99.90
16066;DHT22;8137;48.952;8.970;2022-12-07T06:36:42;2.60;99.90
16066;DHT22;8137;48.952;8.970;2022-12-07T06:39:08;2.70;99.90
16066;DHT22;8137;48.952;8.970;2022-12-07T06:41:38;2.70;99.90
16066;DHT22;8137;48.952;8.970;2022-12-07T06:44:07;2.70;99.90
16066;DHT22;8137;48.952;8.970;2022-12-07T06:46:33;2.70;99.90
16066;DHT22;8137;48.952;8.970;2022-12-07T06:49:00;2.70;99.90
16066;DHT22;8137;48.952;8.970;2022-12-07T06:51:26;2.70;99.90
16066;DHT22;8137;48.952;8.970;2022-12-07T06:53:52;2.80;99.90
16066;DHT22;8137;48.952;8.970;2022-12-07T06:56:18;2.80;99.90
16066;DHT22;8137;48.952;8.970;2022-12-07T06:58:43;2.80;99.90
16066;DHT22;8137;48.952;8.970;2022-12-07T07:01:14;2.80;99.90
16066;DHT22;8137;48.952;8.970;2022-12-07T07:03:40;2.90;99.90
16066;DHT22;8137;48.952;8.970;2022-12-07T07:06:07;2.90;99.90
16066;DHT22;8137;48.952;8.970;2022-12-07T07:08:33;3.00;99.90
16066;DHT22;8137;48.952;8.970;2022-12-07T07:10:59;3.00;99.90
16066;DHT22;8137;48.952;8.970;2022-12-07T07:13:25;3.00;99.90
16066;DHT22;8137;48.952;8.970;2022-12-07T07:15:51;3.00;99.90
16066;DHT22;8137;48.952;8.970;2022-12-07T07:18:16;2.90;99.90
16066;DHT22;8137;48.952;8.970;2022-12-07T07:20:42;3.00;99.90
16066;DHT22;8137;48.952;8.970;2022-12-07T07:23:07;2.90;99.90
16066;DHT22;8137;48.952;8.970;2022-12-07T07:25:33;2.90;99.90
16066;DHT22;8137;48.952;8.970;2022-12-07T07:27:59;2.90;99.90
16066;DHT22;8137;48.952;8.970;2022-12-07T07:30:25;3.00;99.90
16066;DHT22;8137;48.952;8.970;2022-12-07T07:32:51;2.90;99.90
16066;DHT22;8137;48.952;8.970;2022-12-07T07:35:16;3.00;99.90
16066;DHT22;8137;48.952;8.970;2022-12-07T07:37:42;3.00;99.90
16066;DHT22;8137;48.952;8.970;2022-12-07T07:40:09;3.00;99.90
16066;DHT22;8137;48.952;8.970;2022-12-07T07:42:35;3.00;99.90
16066;DHT22;8137;48.952;8.970;2022-12-07T07:45:00;3.10;99.90
16066;DHT22;8137;48.952;8.970;2022-12-07T07:47:26;3.10;99.90
16066;DHT22;8137;48.952;8.970;2022-12-07T07:49:51;3.20;99.90
16066;DHT22;8137;48.952;8.970;2022-12-07T07:52:17;3.20;99.90
16066;DHT22;8137;48.952;8.970;2022-12-07T07:54:43;3.30;99.90
16066;DHT22;8137;48.952;8.970;2022-12-07T07:57:08;3.40;99.90
16066;DHT22;8137;48.952;8.970;2022-12-07T07:59:34;3.50;99.90
16066;DHT22;8137;48.952;8.970;2022-12-07T08:01:59;3.50;99.90
16066;DHT22;8137;48.952;8.970;2022-12-07T08:04:25;3.50;99.90
16066;DHT22;8137;48.952;8.970;2022-12-07T08:06:51;3.50;99.90
16066;DHT22;8137;48.952;8.970;2022-12-07T08:09:16;3.60;99.90
16066;DHT22;8137;48.952;8.970;2022-12-07T08:11:42;3.60;99.90
16066;DHT22;8137;48.952;8.970;2022-12-07T08:14:08;3.60;99.90
16066;DHT22;8137;48.952;8.970;2022-12-07T08:16:35;3.70;99.90
16066;DHT22;8137;48.952;8.970;2022-12-07T08:19:00;3.70;99.90
16066;DHT22;8137;48.952;8.970;2022-12-07T08:21:26;3.80;99.90
16066;DHT22;8137;48.952;8.970;2022-12-07T08:23:51;3.80;99.90
16066;DHT22;8137;48.952;8.970;2022-12-07T08:26:17;3.80;99.90
16066;DHT22;8137;48.952;8.970;2022-12-07T08:28:43;3.90;99.90
16066;DHT22;8137;48.952;8.970;2022-12-07T08:31:13;4.00;99.90
16066;DHT22;8137;48.952;8.970;2022-12-07T08:33:39;4.10;99.90
16066;DHT22;8137;48.952;8.970;2022-12-07T08:36:10;4.10;99.90
16066;DHT22;8137;48.952;8.970;2022-12-07T08:38:38;4.20;99.90
16066;DHT22;8137;48.952;8.970;2022-12-07T08:41:04;4.20;99.90
16066;DHT22;8137;48.952;8.970;2022-12-07T08:43:31;4.30;99.90
16066;DHT22;8137;48.952;8.970;2022-12-07T08:48:22;4.40;99.90
16066;DHT22;8137;48.952;8.970;2022-12-07T08:50:50;4.40;99.90
16066;DHT22;8137;48.952;8.970;2022-12-07T08:53:16;4.40;99.90
16066;DHT22;8137;48.952;8.970;2022-12-07T08:55:43;4.50;99.90
16066;DHT22;8137;48.952;8.970;2022-12-07T08:58:09;4.60;99.90
16066;DHT22;8137;48.952;8.970;2022-12-07T09:00:35;4.70;99.90
16066;DHT22;8137;48.952;8.970;2022-12-07T09:03:00;4.80;99.90
16066;DHT22;8137;48.952;8.970;2022-12-07T09:05:26;4.80;99.90
16066;DHT22;8137;48.952;8.970;2022-12-07T09:07:55;4.90;99.90
16066;DHT22;8137;48.952;8.970;2022-12-07T09:10:22;4.80;99.90
16066;DHT22;8137;48.952;8.970;2022-12-07T09:12:49;4.70;99.90
16066;DHT22;8137;48.952;8.970;2022-12-07T09:15:14;4.70;99.90
16066;DHT22;8137;48.952;8.970;2022-12-07T09:17:40;4.70;99.90
16066;DHT22;8137;48.952;8.970;2022-12-07T09:20:06;4.70;99.90
16066;DHT22;8137;48.952;8.970;2022-12-07T09:22:32;4.70;99.90
16066;DHT22;8137;48.952;8.970;2022-12-07T09:24:58;4.60;99.90
16066;DHT22;8137;48.952;8.970;2022-12-07T09:27:25;4.60;99.90
16066;DHT22;8137;48.952;8.970;2022-12-07T09:29:51;4.50;99.90
16066;DHT22;8137;48.952;8.970;2022-12-07T09:32:16;4.50;99.90
16066;DHT22;8137;48.952;8.970;2022-12-07T09:34:42;4.40;99.90
16066;DHT22;8137;48.952;8.970;2022-12-07T09:37:08;4.40;99.90
16066;DHT22;8137;48.952;8.970;2022-12-07T09:39:34;4.50;99.90
16066;DHT22;8137;48.952;8.970;2022-12-07T09:42:04;4.60;99.90
16066;DHT22;8137;48.952;8.970;2022-12-07T09:44:30;4.60;99.90
16066;DHT22;8137;48.952;8.970;2022-12-07T09:46:56;4.60;99.90
16066;DHT22;8137;48.952;8.970;2022-12-07T09:49:24;4.70;99.90
16066;DHT22;8137;48.952;8.970;2022-12-07T09:54:35;4.80;99.90
16066;DHT22;8137;48.952;8.970;2022-12-07T09:57:02;4.80;99.90
16066;DHT22;8137;48.952;8.970;2022-12-07T09:59:27;4.90;99.90
16066;DHT22;8137;48.952;8.970;2022-12-07T10:01:53;5.00;99.90
16066;DHT22;8137;48.952;8.970;2022-12-07T10:04:24;4.80;99.90
16066;DHT22;8137;48.952;8.970;2022-12-07T10:06:50;4.80;99.90
16066;DHT22;8137;48.952;8.970;2022-12-07T10:09:18;4.80;99.90
16066;DHT22;8137;48.952;8.970;2022-12-07T10:12:07;4.90;99.90
16066;DHT22;8137;48.952;8.970;2022-12-07T10:14:35;4.90;99.90
16066;DHT22;8137;48.952;8.970;2022-12-07T10:17:05;5.00;99.90
16066;DHT22;8137;48.952;8.970;2022-12-07T10:19:48;5.20;99.90
16066;DHT22;8137;48.952;8.970;2022-12-07T10:22:17;5.40;99.90
16066;DHT22;8137;48.952;8.970;2022-12-07T10:24:46;5.40;99.90
16066;DHT22;8137;48.952;8.970;2022-12-07T10:27:31;5.30;99.90
16066;DHT22;8137;48.952;8.970;2022-12-07T10:29:57;5.10;99.90
16066;DHT22;8137;48.952;8.970;2022-12-07T10:32:34;5.10;99.90
16066;DHT22;8137;48.952;8.970;2022-12-07T10:37:47;5.10;99.90
16066;DHT22;8137;48.952;8.970;2022-12-07T10:40:39;4.90;99.90
16066;DHT22;8137;48.952;8.970;2022-12-07T11:01:57;4.60;99.90
16066;DHT22;8137;48.952;8.970;2022-12-07T11:07:10;4.70;99.90
16066;DHT22;8137;48.952;8.970;2022-12-07T11:12:24;4.70;99.90
16066;DHT22;8137;48.952;8.970;2022-12-07T11:15:23;4.90;99.90
16066;DHT22;8137;48.952;8.970;2022-12-07T11:18:19;5.00;99.90
16066;DHT22;8137;48.952;8.970;2022-12-07T11:20:54;5.20;99.90
16066;DHT22;8137;48.952;8.970;2022-12-07T11:24:27;5.30;99.90
16066;DHT22;8137;48.952;8.970;2022-12-07T11:26:55;5.40;99.90
16066;DHT22;8137;48.952;8.970;2022-12-07T11:29:47;5.40;99.90
16066;DHT22;8137;48.952;8.970;2022-12-07T11:32:22;5.50;99.90
16066;DHT22;8137;48.952;8.970;2022-12-07T11:37:37;5.40;99.90
16066;DHT22;8137;48.952;8.970;2022-12-07T11:40:29;5.30;99.90
16066;DHT22;8137;48.952;8.970;2022-12-07T11:43:05;5.30;99.90
16066;DHT22;8137;48.952;8.970;2022-12-07T11:45:37;5.20;99.90
16066;DHT22;8137;48.952;8.970;2022-12-07T11:50:52;5.20;99.90
16066;DHT22;8137;48.952;8.970;2022-12-07T11:53:45;5.20;99.90
16066;DHT22;8137;48.952;8.970;2022-12-07T11:56:17;5.20;99.90
16066;DHT22;8137;48.952;8.970;2022-12-07T12:03:45;5.40;99.90
16066;DHT22;8137;48.952;8.970;2022-12-07T12:06:12;5.50;99.90
16066;DHT22;8137;48.952;8.970;2022-12-07T12:09:05;5.40;99.90
16066;DHT22;8137;48.952;8.970;2022-12-07T12:15:06;5.40;99.90
16066;DHT22;8137;48.952;8.970;2022-12-07T12:20:37;5.30;99.90
16066;DHT22;8137;48.952;8.970;2022-12-07T12:23:21;5.30;99.90
16066;DHT22;8137;48.952;8.970;2022-12-07T12:25:55;5.40;99.90
16066;DHT22;8137;48.952;8.970;2022-12-07T12:28:27;5.40;99.90
16066;DHT22;8137;48.952;8.970;2022-12-07T12:31:10;5.40;99.90
16066;DHT22;8137;48.952;8.970;2022-12-07T12:33:38;5.40;99.90
16066;DHT22;8137;48.952;8.970;2022-12-07T12:36:17;5.30;99.90
16066;DHT22;8137;48.952;8.970;2022-12-07T12:44:38;5.20;99.90
16066;DHT22;8137;48.952;8.970;2022-12-07T12:46:52;5.20;99.90
16066;DHT22;8137;48.952;8.970;2022-12-07T12:51:58;5.20;99.90
16066;DHT22;8137;48.952;8.970;2022-12-07T12:54:26;5.10;99.90
16066;DHT22;8137;48.952;8.970;2022-12-07T12:59:35;5.00;99.90
16066;DHT22;8137;48.952;8.970;2022-12-07T13:02:33;5.00;99.90
16066;DHT22;8137;48.952;8.970;2022-12-07T13:07:49;5.00;99.90
16066;DHT22;8137;48.952;8.970;2022-12-07T13:18:21;5.40;99.90
16066;DHT22;8137;48.952;8.970;2022-12-07T13:21:01;5.40;99.90
16066;DHT22;8137;48.952;8.970;2022-12-07T13:28:45;5.20;99.90
16066;DHT22;8137;48.952;8.970;2022-12-07T13:34:35;5.20;99.90
16066;DHT22;8137;48.952;8.970;2022-12-07T13:37:09;5.20;99.90
16066;DHT22;8137;48.952;8.970;2022-12-07T13:39:51;5.10;99.90
16066;DHT22;8137;48.952;8.970;2022-12-07T13:42:34;5.10;99.90
16066;DHT22;8137;48.952;8.970;2022-12-07T13:45:17;5.10;99.90
16066;DHT22;8137;48.952;8.970;2022-12-07T13:47:51;5.10;99.90
16066;DHT22;8137;48.952;8.970;2022-12-07T13:50:32;5.20;99.90
16066;DHT22;8137;48.952;8.970;2022-12-07T13:53:00;5.20;99.90
16066;DHT22;8137;48.952;8.970;2022-12-07T13:55:27;5.20;99.90
16066;DHT22;8137;48.952;8.970;2022-12-07T13:57:54;5.10;99.90
16066;DHT22;8137;48.952;8.970;2022-12-07T14:00:25;5.00;99.90
16066;DHT22;8137;48.952;8.970;2022-12-07T14:05:37;4.80;99.90
16066;DHT22;8137;48.952;8.970;2022-12-07T14:08:20;4.70;99.90
16066;DHT22;8137;48.952;8.970;2022-12-07T14:16:03;4.50;99.90
16066;DHT22;8137;48.952;8.970;2022-12-07T14:18:35;4.40;99.90
16066;DHT22;8137;48.952;8.970;2022-12-07T14:21:26;4.20;99.90
16066;DHT22;8137;48.952;8.970;2022-12-07T14:24:16;4.20;99.90
16066;DHT22;8137;48.952;8.970;2022-12-07T14:26:44;4.20;99.90
16066;DHT22;8137;48.952;8.970;2022-12-07T14:31:52;4.20;99.90
16066;DHT22;8137;48.952;8.970;2022-12-07T14:34:20;4.20;99.90
16066;DHT22;8137;48.952;8.970;2022-12-07T14:36:46;4.20;99.90
16066;DHT22;8137;48.952;8.970;2022-12-07T14:39:11;4.20;99.90
16066;DHT22;8137;48.952;8.970;2022-12-07T14:41:37;4.20;99.90
16066;DHT22;8137;48.952;8.970;2022-12-07T14:44:22;4.30;99.90
16066;DHT22;8137;48.952;8.970;2022-12-07T14:46:49;4.30;99.90
16066;DHT22;8137;48.952;8.970;2022-12-07T14:49:15;4.30;99.90
16066;DHT22;8137;48.952;8.970;2022-12-07T14:51:41;4.30;99.90
16066;DHT22;8137;48.952;8.970;2022-12-07T14:54:15;4.20;99.90
16066;DHT22;8137;48.952;8.970;2022-12-07T14:56:41;4.10;99.90
16066;DHT22;8137;48.952;8.970;2022-12-07T14:59:07;4.10;99.90
16066;DHT22;8137;48.952;8.970;2022-12-07T15:01:33;4.20;99.90
16066;DHT22;8137;48.952;8.970;2022-12-07T15:03:59;4.10;99.90
16066;DHT22;8137;48.952;8.970;2022-12-07T15:06:25;4.10;99.90
16066;DHT22;8137;48.952;8.970;2022-12-07T15:08:50;4.10;99.90
16066;DHT22;8137;48.952;8.970;2022-12-07T15:11:17;4.10;99.90
16066;DHT22;8137;48.952;8.970;2022-12-07T15:13:43;4.10;99.90
16066;DHT22;8137;48.952;8.970;2022-12-07T15:16:27;4.10;99.90
16066;DHT22;8137;48.952;8.970;2022-12-07T15:18:53;4.00;99.90
16066;DHT22;8137;48.952;8.970;2022-12-07T15:21:18;4.00;99.90
16066;DHT22;8137;48.952;8.970;2022-12-07T15:23:46;4.00;99.90
16066;DHT22;8137;48.952;8.970;2022-12-07T15:26:12;4.00;99.90
16066;DHT22;8137;48.952;8.970;2022-12-07T15:28:37;3.90;99.90
16066;DHT22;8137;48.952;8.970;2022-12-07T15:31:03;3.90;99.90
16066;DHT22;8137;48.952;8.970;2022-12-07T15:33:28;3.90;99.90
16066;DHT22;8137;48.952;8.970;2022-12-07T15:35:54;3.90;99.90
16066;DHT22;8137;48.952;8.970;2022-12-07T15:38:20;3.90;99.90
16066;DHT22;8137;48.952;8.970;2022-12-07T15:40:49;3.80;99.90
16066;DHT22;8137;48.952;8.970;2022-12-07T15:43:14;3.80;99.90
16066;DHT22;8137;48.952;8.970;2022-12-07T15:45:58;3.80;99.90
16066;DHT22;8137;48.952;8.970;2022-12-07T15:48:24;3.80;99.90
16066;DHT22;8137;48.952;8.970;2022-12-07T15:50:50;3.80;99.90
16066;DHT22;8137;48.952;8.970;2022-12-07T15:53:16;3.80;99.90
16066;DHT22;8137;48.952;8.970;2022-12-07T15:55:41;3.80;99.90
16066;DHT22;8137;48.952;8.970;2022-12-07T15:58:07;3.80;99.90
16066;DHT22;8137;48.952;8.970;2022-12-07T16:00:33;3.80;99.90
16066;DHT22;8137;48.952;8.970;2022-12-07T16:02:58;3.80;99.90
16066;DHT22;8137;48.952;8.970;2022-12-07T16:05:24;3.80;99.90
16066;DHT22;8137;48.952;8.970;2022-12-07T16:07:49;3.80;99.90
16066;DHT22;8137;48.952;8.970;2022-12-07T16:10:15;3.80;99.90
16066;DHT22;8137;48.952;8.970;2022-12-07T16:12:41;3.80;99.90
16066;DHT22;8137;48.952;8.970;2022-12-07T16:15:07;3.70;99.90
16066;DHT22;8137;48.952;8.970;2022-12-07T16:17:32;3.70;99.90
16066;DHT22;8137;48.952;8.970;2022-12-07T16:19:58;3.60;99.90
16066;DHT22;8137;48.952;8.970;2022-12-07T16:22:24;3.50;99.90
16066;DHT22;8137;48.952;8.970;2022-12-07T16:24:49;3.40;99.90
16066;DHT22;8137;48.952;8.970;2022-12-07T16:27:15;3.30;99.90
16066;DHT22;8137;48.952;8.970;2022-12-07T16:29:40;3.20;99.90
16066;DHT22;8137;48.952;8.970;2022-12-07T16:32:06;3.10;99.90
16066;DHT22;8137;48.952;8.970;2022-12-07T16:34:32;3.00;99.90
16066;DHT22;8137;48.952;8.970;2022-12-07T16:36:57;2.90;99.90
16066;DHT22;8137;48.952;8.970;2022-12-07T16:39:23;2.80;99.90
16066;DHT22;8137;48.952;8.970;2022-12-07T16:41:50;2.80;99.90
16066;DHT22;8137;48.952;8.970;2022-12-07T16:44:15;2.80;99.90
16066;DHT22;8137;48.952;8.970;2022-12-07T16:46:41;2.80;99.90
16066;DHT22;8137;48.952;8.970;2022-12-07T16:49:11;2.80;99.90
16066;DHT22;8137;48.952;8.970;2022-12-07T16:51:37;2.90;99.90
16066;DHT22;8137;48.952;8.970;2022-12-07T16:54:03;2.90;99.90
16066;DHT22;8137;48.952;8.970;2022-12-07T16:56:28;3.00;99.90
16066;DHT22;8137;48.952;8.970;2022-12-07T16:58:54;3.00;99.90
16066;DHT22;8137;48.952;8.970;2022-12-07T17:01:21;3.00;99.90
16066;DHT22;8137;48.952;8.970;2022-12-07T17:03:48;3.00;99.90
16066;DHT22;8137;48.952;8.970;2022-12-07T17:06:16;3.00;99.90
16066;DHT22;8137;48.952;8.970;2022-12-07T17:08:43;3.00;99.90
16066;DHT22;8137;48.952;8.970;2022-12-07T17:11:13;3.00;99.90
16066;DHT22;8137;48.952;8.970;2022-12-07T17:13:40;3.00;99.90
16066;DHT22;8137;48.952;8.970;2022-12-07T17:16:24;3.00;99.90
16066;DHT22;8137;48.952;8.970;2022-12-07T17:18:50;3.10;99.90
16066;DHT22;8137;48.952;8.970;2022-12-07T17:21:15;3.20;99.90
16066;DHT22;8137;48.952;8.970;2022-12-07T17:23:41;3.20;99.90
16066;DHT22;8137;48.952;8.970;2022-12-07T17:26:09;3.20;99.90
16066;DHT22;8137;48.952;8.970;2022-12-07T17:28:36;3.20;99.90
16066;DHT22;8137;48.952;8.970;2022-12-07T17:31:06;3.20;99.90
16066;DHT22;8137;48.952;8.970;2022-12-07T17:33:32;3.20;99.90
16066;DHT22;8137;48.952;8.970;2022-12-07T17:35:59;3.20;99.90
16066;DHT22;8137;48.952;8.970;2022-12-07T17:38:24;3.20;99.90
16066;DHT22;8137;48.952;8.970;2022-12-07T17:40:50;3.20;99.90
16066;DHT22;8137;48.952;8.970;2022-12-07T17:43:16;3.20;99.90
16066;DHT22;8137;48.952;8.970;2022-12-07T17:45:41;3.20;99.90
16066;DHT22;8137;48.952;8.970;2022-12-07T17:48:07;3.20;99.90
16066;DHT22;8137;48.952;8.970;2022-12-07T17:50:33;3.20;99.90
16066;DHT22;8137;48.952;8.970;2022-12-07T17:53:17;3.20;99.90
16066;DHT22;8137;48.952;8.970;2022-12-07T17:55:42;3.20;99.90
16066;DHT22;8137;48.952;8.970;2022-12-07T17:58:08;3.20;99.90
16066;DHT22;8137;48.952;8.970;2022-12-07T18:00:34;3.20;99.90
16066;DHT22;8137;48.952;8.970;2022-12-07T18:03:06;3.20;99.90
16066;DHT22;8137;48.952;8.970;2022-12-07T18:05:35;3.20;99.90
16066;DHT22;8137;48.952;8.970;2022-12-07T18:08:00;3.20;99.90
16066;DHT22;8137;48.952;8.970;2022-12-07T18:10:26;3.20;99.90
16066;DHT22;8137;48.952;8.970;2022-12-07T18:12:52;3.20;99.90
16066;DHT22;8137;48.952;8.970;2022-12-07T18:15:38;3.30;99.90
16066;DHT22;8137;48.952;8.970;2022-12-07T18:18:03;3.20;99.90